METAR AND TAF INFORMATION
METAR FOR ENNO
ADDS - METARS form results

(2050 UTC 03 August 2021)
Data provider http://aviationweather.gov/metar/data/
 
Forecast for: ENNO (NOTODDEN , NO)
Text: TAF ENNO 031100Z 0312/0317 11008KT 9999 FEW015 SCT060
Forecast period: 1200 to 1700 UTC 03 August 2021
Forecast type: FROM: standard forecast or significant change
Winds: from the ESE (110 degrees) at 9 MPH (8 knots; 4.1 m/s)
Visibility: 6 or more miles (10+ km)
Ceiling: at least 12,000 feet AGL
Clouds: few clouds at 1500 feet AGL
scattered clouds at 6000 feet AGL
Weather: no significant weather forecast for this period
Text: PROB30
Forecast period: 1200 to 1700 UTC 03 August 2021
Forecast type: TEMPORARY: The following changes expected for less than half the time period
Visibility: missing
Ceiling: 3000 feet AGL
Clouds: few clouds at 2000 feet AGL
broken clouds at 3000 feet AGL
Weather: SHRA  (rain showers)

 AIRPORT MAP

 RUNWAY INFORMATION
Runway 12 Runway length 4570 ft Runway width 131 ft
Runway elevation 61 ft Runway displaced threshold 2072 ft Runway heading 127
Runway 30 Runway length 4570 ft Runway width 131 ft
Runway elevation 58 ft Runway displaced threshold 0 ft Runway heading 307

 AIRPORT FREQUENCIES
Type AFIS Name INFO Frequency 118.8 MHZ

 AIRPORT NEAR NAVIGATION AIDS
Type NDB Name Notodden Frequency 400 KHZ





Powered by Virtual Airlines Manager

Maps by Rafael Santos